Time,TemperatureF,DewpointF,PressureIn,WindDirection,WindDirectionDegrees,WindSpeedMPH,WindSpeedGustMPH,Humidity,HourlyPrecipIn,Conditions,Clouds,dailyrainin,SoftwareType,DateUTC
2013-02-09 00:00:00,34.0,23.4,29.94,NNW,333,10.8,22.5,65,0.00,,,0.00,WX3IN1Plus v1.30,2013-02-09 05:00:00,
2013-02-09 00:05:00,33.8,22.9,29.94,NNW,341,16.7,27.1,64,0.00,,,0.00,WX3IN1Plus v1.30,2013-02-09 05:05:00,
2013-02-09 00:10:00,33.6,22.9,29.94,North,358,11.7,28.6,65,0.00,,,0.00,WX3IN1Plus v1.30,2013-02-09 05:10:00,
2013-02-09 00:15:00,33.5,22.5,29.93,North,4,7.8,27.7,64,0.00,,,0.00,WX3IN1Plus v1.30,2013-02-09 05:15:00,
2013-02-09 00:20:00,33.5,22.5,29.94,NNE,16,9.6,27.3,64,0.00,,,0.00,WX3IN1Plus v1.30,2013-02-09 05:20:00,
2013-02-09 00:25:00,33.6,23.2,29.94,North,358,4.5,20.9,66,0.00,,,0.00,WX3IN1Plus v1.30,2013-02-09 05:25:00,
2013-02-09 00:30:00,33.3,22.9,29.94,NNW,347,12.0,26.8,65,0.00,,,0.00,WX3IN1Plus v1.30,2013-02-09 05:30:00,
2013-02-09 00:35:00,33.2,22.7,29.94,NNW,338,15.7,24.3,65,0.00,,,0.00,WX3IN1Plus v1.30,2013-02-09 05:35:00,
2013-02-09 00:40:00,33.1,22.9,29.94,North,9,6.4,24.7,66,0.00,,,0.00,WX3IN1Plus v1.30,2013-02-09 05:40:00,
2013-02-09 00:45:00,32.9,22.7,29.94,North,2,14.4,31.9,66,0.00,,,0.00,WX3IN1Plus v1.30,2013-02-09 05:45:00,
2013-02-09 00:50:00,32.9,22.7,29.95,North,1,15.7,30.4,66,0.00,,,0.00,WX3IN1Plus v1.30,2013-02-09 05:50:00,
2013-02-09 00:55:00,32.8,22.5,29.95,NNE,33,13.1,29.5,66,0.00,,,0.00,WX3IN1Plus v1.30,2013-02-09 05:55:00,
2013-02-09 01:00:00,32.7,22.9,29.95,WNW,303,4.5,22.8,67,0.00,,,0.00,WX3IN1Plus v1.30,2013-02-09 06:00:00,
2013-02-09 01:06:00,32.5,22.7,29.96,NW,320,7.0,23.5,67,0.00,,,0.00,WX3IN1Plus v1.30,2013-02-09 06:06:00,
2013-02-09 01:11:00,32.5,22.7,29.96,NW,317,11.0,21.4,67,0.00,,,0.00,WX3IN1Plus v1.30,2013-02-09 06:11:00,
2013-02-09 01:16:00,32.4,22.7,29.96,North,358,8.0,27.0,67,0.00,,,0.00,WX3IN1Plus v1.30,2013-02-09 06:16:00,
2013-02-09 01:21:00,32.2,22.5,29.96,North,8,4.7,18.2,67,0.00,,,0.00,WX3IN1Plus v1.30,2013-02-09 06:21:00,
2013-02-09 01:26:00,32.0,22.5,29.97,NNE,23,8.7,23.7,67,0.00,,,0.00,WX3IN1Plus v1.30,2013-02-09 06:26:00,
2013-02-09 01:31:00,31.9,22.5,29.97,NNE,12,11.3,19.3,67,0.00,,,0.00,WX3IN1Plus v1.30,2013-02-09 06:31:00,
2013-02-09 01:36:00,31.8,22.5,29.97,ENE,57,7.3,23.4,67,0.00,,,0.00,WX3IN1Plus v1.30,2013-02-09 06:36:00,
2013-02-09 01:41:00,31.7,22.0,29.98,NW,312,3.9,21.0,66,0.00,,,0.00,WX3IN1Plus v1.30,2013-02-09 06:41:00,
2013-02-09 01:46:00,31.8,22.0,29.98,NNE,26,10.3,21.0,66,0.00,,,0.00,WX3IN1Plus v1.30,2013-02-09 06:46:00,
2013-02-09 01:51:00,31.7,21.8,29.99,NNE,21,5.7,20.6,65,0.00,,,0.00,WX3IN1Plus v1.30,2013-02-09 06:51:00,
2013-02-09 01:56:00,31.5,21.1,29.99,NNE,15,11.8,23.0,64,0.00,,,0.00,WX3IN1Plus v1.30,2013-02-09 06:56:00,
2013-02-09 02:01:00,31.4,21.2,30.00,WSW,248,5.0,19.3,65,0.00,,,0.00,WX3IN1Plus v1.30,2013-02-09 07:01:00,
2013-02-09 02:06:00,31.5,21.4,30.00,NW,306,6.0,20.1,65,0.00,,,0.00,WX3IN1Plus v1.30,2013-02-09 07:06:00,
2013-02-09 02:11:00,31.1,20.5,30.00,ENE,63,9.6,23.2,64,0.00,,,0.00,WX3IN1Plus v1.30,2013-02-09 07:11:00,
2013-02-09 02:16:00,31.1,21.1,30.01,NNW,348,6.7,21.0,65,0.00,,,0.00,WX3IN1Plus v1.30,2013-02-09 07:16:00,
2013-02-09 02:21:00,30.9,20.7,30.02,NNW,338,12.3,22.9,65,0.00,,,0.00,WX3IN1Plus v1.30,2013-02-09 07:21:00,
2013-02-09 02:26:00,30.9,20.7,30.02,North,9,6.2,22.0,65,0.00,,,0.00,WX3IN1Plus v1.30,2013-02-09 07:26:00,
2013-02-09 02:31:00,31.0,21.1,30.02,NNW,338,7.5,18.3,65,0.00,,,0.00,WX3IN1Plus v1.30,2013-02-09 07:31:00,
2013-02-09 02:36:00,31.0,21.2,30.02,WSW,258,3.8,15.1,66,0.00,,,0.00,WX3IN1Plus v1.30,2013-02-09 07:36:00,
2013-02-09 02:41:00,30.9,21.1,30.03,NE,45,5.9,14.2,66,0.00,,,0.00,WX3IN1Plus v1.30,2013-02-09 07:41:00,
2013-02-09 02:46:00,30.7,20.5,30.03,NW,310,6.2,13.9,65,0.00,,,0.00,WX3IN1Plus v1.30,2013-02-09 07:46:00,
2013-02-09 02:51:00,30.7,20.5,30.03,NNW,330,9.1,20.3,65,0.00,,,0.00,WX3IN1Plus v1.30,2013-02-09 07:51:00,
2013-02-09 02:56:00,30.6,20.5,30.03,NNE,23,8.3,17.5,65,0.00,,,0.00,WX3IN1Plus v1.30,2013-02-09 07:56:00,
2013-02-09 03:01:00,30.6,19.8,30.03,North,5,12.3,20.0,63,0.00,,,0.00,WX3IN1Plus v1.30,2013-02-09 08:01:00,
2013-02-09 03:06:00,30.3,19.6,30.03,NE,36,11.1,19.3,63,0.00,,,0.00,WX3IN1Plus v1.30,2013-02-09 08:06:00,
2013-02-09 03:11:00,30.3,19.6,30.03,NNE,18,6.5,15.3,63,0.00,,,0.00,WX3IN1Plus v1.30,2013-02-09 08:11:00,
2013-02-09 03:16:00,30.2,19.4,30.03,North,4,9.4,20.0,63,0.00,,,0.00,WX3IN1Plus v1.30,2013-02-09 08:16:00,
2013-02-09 03:21:00,30.3,19.6,30.04,NNW,336,8.2,29.0,63,0.00,,,0.00,WX3IN1Plus v1.30,2013-02-09 08:21:00,
2013-02-09 03:26:00,30.1,19.4,30.04,NNW,336,16.5,26.3,63,0.00,,,0.00,WX3IN1Plus v1.30,2013-02-09 08:26:00,
2013-02-09 03:31:00,30.1,19.4,30.04,NNE,14,5.2,25.6,63,0.00,,,0.00,WX3IN1Plus v1.30,2013-02-09 08:31:00,
2013-02-09 03:36:00,30.0,19.4,30.04,NNW,338,12.8,18.9,64,0.00,,,0.00,WX3IN1Plus v1.30,2013-02-09 08:36:00,
2013-02-09 03:41:00,29.9,19.4,30.05,North,0,12.8,22.7,64,0.00,,,0.00,WX3IN1Plus v1.30,2013-02-09 08:41:00,
2013-02-09 03:46:00,29.7,19.1,30.05,North,358,6.2,24.8,63,0.00,,,0.00,WX3IN1Plus v1.30,2013-02-09 08:46:00,
2013-02-09 03:51:00,29.8,19.4,30.05,NNW,331,9.9,22.0,64,0.00,,,0.00,WX3IN1Plus v1.30,2013-02-09 08:51:00,
2013-02-09 03:56:00,29.7,19.1,30.04,North,8,26.8,32.2,63,0.00,,,0.00,WX3IN1Plus v1.30,2013-02-09 08:56:00,
2013-02-09 04:01:00,29.7,19.1,30.05,NE,35,7.2,28.4,63,0.00,,,0.00,WX3IN1Plus v1.30,2013-02-09 09:01:00,
2013-02-09 04:06:00,29.7,19.1,30.05,North,2,11.7,22.6,63,0.00,,,0.00,WX3IN1Plus v1.30,2013-02-09 09:06:00,
2013-02-09 04:11:00,29.7,19.1,30.05,NE,35,7.5,19.7,63,0.00,,,0.00,WX3IN1Plus v1.30,2013-02-09 09:11:00,
2013-02-09 04:16:00,29.5,18.9,30.05,North,1,12.1,16.9,63,0.00,,,0.00,WX3IN1Plus v1.30,2013-02-09 09:16:00,
2013-02-09 04:21:00,29.7,19.1,30.05,NNW,336,11.8,27.5,63,0.00,,,0.00,WX3IN1Plus v1.30,2013-02-09 09:21:00,
2013-02-09 04:26:00,29.7,19.1,30.06,NNE,23,12.8,18.2,63,0.00,,,0.00,WX3IN1Plus v1.30,2013-02-09 09:26:00,
2013-02-09 04:31:00,29.7,19.1,30.06,NNE,29,11.3,25.6,63,0.00,,,0.00,WX3IN1Plus v1.30,2013-02-09 09:31:00,
2013-02-09 04:36:00,29.7,19.1,30.06,NW,313,8.0,18.1,63,0.00,,,0.00,WX3IN1Plus v1.30,2013-02-09 09:36:00,
2013-02-09 04:41:00,29.5,18.9,30.06,North,358,11.0,21.0,63,0.00,,,0.00,WX3IN1Plus v1.30,2013-02-09 09:41:00,
2013-02-09 04:46:00,29.6,18.9,30.06,NNW,337,10.2,25.5,63,0.00,,,0.00,WX3IN1Plus v1.30,2013-02-09 09:46:00,
2013-02-09 04:51:00,29.6,18.9,30.06,WNW,302,4.7,21.8,63,0.00,,,0.00,WX3IN1Plus v1.30,2013-02-09 09:51:00,
2013-02-09 04:56:00,29.3,18.2,30.07,NNE,23,12.6,25.4,62,0.00,,,0.00,WX3IN1Plus v1.30,2013-02-09 09:56:00,
2013-02-09 05:01:00,29.4,18.2,30.07,NW,326,7.1,22.5,62,0.00,,,0.00,WX3IN1Plus v1.30,2013-02-09 10:01:00,
2013-02-09 05:06:00,29.3,18.7,30.08,NNE,21,5.9,19.7,63,0.00,,,0.00,WX3IN1Plus v1.30,2013-02-09 10:06:00,
2013-02-09 05:11:00,29.2,18.7,30.09,North,2,16.5,20.8,63,0.00,,,0.00,WX3IN1Plus v1.30,2013-02-09 10:11:00,
2013-02-09 05:16:00,29.1,18.4,30.09,NNW,344,6.2,23.0,63,0.00,,,0.00,WX3IN1Plus v1.30,2013-02-09 10:16:00,
2013-02-09 05:21:00,29.2,18.7,30.10,NNW,338,3.8,18.2,63,0.00,,,0.00,WX3IN1Plus v1.30,2013-02-09 10:21:00,
2013-02-09 05:26:00,29.0,18.4,30.10,NE,40,12.4,18.8,63,0.00,,,0.00,WX3IN1Plus v1.30,2013-02-09 10:26:00,
2013-02-09 05:31:00,29.0,18.4,30.10,North,358,10.5,24.2,63,0.00,,,0.00,WX3IN1Plus v1.30,2013-02-09 10:31:00,
2013-02-09 05:36:00,28.7,18.0,30.11,North,350,14.2,15.3,63,0.00,,,0.00,WX3IN1Plus v1.30,2013-02-09 10:36:00,
2013-02-09 05:41:00,28.7,18.2,30.11,North,5,6.8,22.4,64,0.00,,,0.00,WX3IN1Plus v1.30,2013-02-09 10:41:00,
2013-02-09 05:46:00,28.6,18.0,30.11,NNE,33,11.7,23.9,63,0.00,,,0.00,WX3IN1Plus v1.30,2013-02-09 10:46:00,
2013-02-09 05:51:00,28.7,18.0,30.11,NNE,23,9.1,23.1,63,0.00,,,0.00,WX3IN1Plus v1.30,2013-02-09 10:51:00,
2013-02-09 05:56:00,28.7,18.2,30.12,North,358,4.1,12.1,64,0.00,,,0.00,WX3IN1Plus v1.30,2013-02-09 10:56:00,
2013-02-09 06:01:00,28.3,18.0,30.11,NNW,348,7.3,18.3,64,0.00,,,0.00,WX3IN1Plus v1.30,2013-02-09 11:01:00,
2013-02-09 06:06:00,28.6,18.0,30.12,NNW,344,8.2,21.2,63,0.00,,,0.00,WX3IN1Plus v1.30,2013-02-09 11:06:00,
2013-02-09 06:11:00,28.6,18.2,30.12,NNW,345,3.9,23.0,64,0.00,,,0.00,WX3IN1Plus v1.30,2013-02-09 11:11:00,
2013-02-09 06:16:00,28.6,18.2,30.12,NNE,23,5.7,18.4,64,0.00,,,0.00,WX3IN1Plus v1.30,2013-02-09 11:16:00,
2013-02-09 06:21:00,28.3,18.0,30.12,NNW,330,13.1,20.3,64,0.00,,,0.00,WX3IN1Plus v1.30,2013-02-09 11:21:00,
2013-02-09 06:26:00,28.4,18.0,30.13,NNE,19,6.5,15.3,64,0.00,,,0.00,WX3IN1Plus v1.30,2013-02-09 11:26:00,
2013-02-09 06:31:00,28.3,18.0,30.14,North,358,5.0,17.7,64,0.00,,,0.00,WX3IN1Plus v1.30,2013-02-09 11:31:00,
2013-02-09 06:36:00,28.2,18.2,30.14,NE,46,6.1,15.2,65,0.00,,,0.00,WX3IN1Plus v1.30,2013-02-09 11:36:00,
2013-02-09 06:41:00,28.3,18.4,30.15,NE,49,3.1,17.5,65,0.00,,,0.00,WX3IN1Plus v1.30,2013-02-09 11:41:00,
2013-02-09 06:46:00,28.1,18.2,30.15,NW,324,5.8,15.2,65,0.00,,,0.00,WX3IN1Plus v1.30,2013-02-09 11:46:00,
2013-02-09 06:51:00,28.2,18.2,30.15,NE,40,7.3,20.1,65,0.00,,,0.00,WX3IN1Plus v1.30,2013-02-09 11:51:00,
2013-02-09 06:56:00,28.0,18.0,30.15,NNW,345,7.9,14.4,65,0.00,,,0.00,WX3IN1Plus v1.30,2013-02-09 11:56:00,
2013-02-09 07:01:00,28.3,18.4,30.16,North,2,6.8,14.5,65,0.00,,,0.00,WX3IN1Plus v1.30,2013-02-09 12:01:00,
2013-02-09 07:06:00,28.2,18.2,30.16,North,350,1.7,13.3,65,0.00,,,0.00,WX3IN1Plus v1.30,2013-02-09 12:06:00,
2013-02-09 07:11:00,28.0,18.0,30.16,NW,323,14.6,14.9,65,0.00,,,0.00,WX3IN1Plus v1.30,2013-02-09 12:11:00,
2013-02-09 07:16:00,28.1,18.2,30.16,NNW,344,10.6,16.8,65,0.00,,,0.00,WX3IN1Plus v1.30,2013-02-09 12:16:00,
2013-02-09 07:21:00,28.0,18.0,30.16,NNE,30,8.7,17.6,65,0.00,,,0.00,WX3IN1Plus v1.30,2013-02-09 12:21:00,
2013-02-09 07:26:00,28.1,18.2,30.15,North,0,3.9,11.7,65,0.00,,,0.00,WX3IN1Plus v1.30,2013-02-09 12:26:00,
2013-02-09 07:31:00,28.0,17.5,30.15,NNE,25,9.2,18.1,64,0.00,,,0.00,WX3IN1Plus v1.30,2013-02-09 12:31:00,
2013-02-09 07:36:00,28.1,18.2,30.16,North,4,8.5,14.8,65,0.00,,,0.00,WX3IN1Plus v1.30,2013-02-09 12:36:00,
2013-02-09 07:41:00,28.1,17.8,30.16,NNE,19,12.8,19.3,64,0.00,,,0.00,WX3IN1Plus v1.30,2013-02-09 12:41:00,
2013-02-09 07:46:00,28.0,17.5,30.16,ENE,60,10.8,19.0,64,0.00,,,0.00,WX3IN1Plus v1.30,2013-02-09 12:46:00,
2013-02-09 07:51:00,28.1,17.5,30.16,NNE,23,16.5,19.3,63,0.00,,,0.00,WX3IN1Plus v1.30,2013-02-09 12:51:00,
2013-02-09 07:56:00,28.2,17.5,30.15,NNE,16,12.4,25.4,63,0.00,,,0.00,WX3IN1Plus v1.30,2013-02-09 12:56:00,
2013-02-09 08:01:00,28.4,18.0,30.16,NNE,12,4.1,17.6,64,0.00,,,0.00,WX3IN1Plus v1.30,2013-02-09 13:01:00,
2013-02-09 08:06:00,28.6,18.2,30.16,North,4,11.4,17.1,64,0.00,,,0.00,WX3IN1Plus v1.30,2013-02-09 13:06:00,
2013-02-09 08:11:00,28.4,18.0,30.17,NNE,15,6.2,15.7,64,0.00,,,0.00,WX3IN1Plus v1.30,2013-02-09 13:11:00,
2013-02-09 08:16:00,28.7,18.0,30.17,North,7,11.2,19.7,63,0.00,,,0.00,WX3IN1Plus v1.30,2013-02-09 13:16:00,
2013-02-09 08:21:00,28.8,18.2,30.17,NW,322,7.8,26.1,63,0.00,,,0.00,WX3IN1Plus v1.30,2013-02-09 13:21:00,
2013-02-09 08:26:00,28.9,18.2,30.17,NNE,30,7.5,19.6,63,0.00,,,0.00,WX3IN1Plus v1.30,2013-02-09 13:26:00,
2013-02-09 08:31:00,28.9,18.2,30.17,NNE,26,6.7,21.5,63,0.00,,,0.00,WX3IN1Plus v1.30,2013-02-09 13:31:00,
2013-02-09 08:36:00,28.7,17.5,30.17,NNE,28,9.1,21.8,62,0.00,,,0.00,WX3IN1Plus v1.30,2013-02-09 13:36:00,
2013-02-09 08:41:00,29.0,18.0,30.17,North,1,4.7,25.7,62,0.00,,,0.00,WX3IN1Plus v1.30,2013-02-09 13:41:00,
2013-02-09 08:46:00,28.9,17.8,30.18,ENE,60,12.9,26.4,62,0.00,,,0.00,WX3IN1Plus v1.30,2013-02-09 13:46:00,
2013-02-09 08:51:00,29.0,18.0,30.18,NE,54,8.2,24.2,62,0.00,,,0.00,WX3IN1Plus v1.30,2013-02-09 13:51:00,
2013-02-09 08:56:00,28.9,17.5,30.18,NE,37,11.3,22.8,61,0.00,,,0.00,WX3IN1Plus v1.30,2013-02-09 13:56:00,
2013-02-09 09:01:00,29.2,18.0,30.18,North,7,9.4,22.2,61,0.00,,,0.00,WX3IN1Plus v1.30,2013-02-09 14:01:00,
2013-02-09 09:06:00,29.3,18.2,30.19,NE,35,7.8,17.6,62,0.00,,,0.00,WX3IN1Plus v1.30,2013-02-09 14:06:00,
2013-02-09 09:11:00,29.4,18.0,30.20,WNW,295,11.0,18.6,61,0.00,,,0.00,WX3IN1Plus v1.30,2013-02-09 14:11:00,
2013-02-09 09:16:00,29.8,18.4,30.20,NNW,330,6.7,18.2,61,0.00,,,0.00,WX3IN1Plus v1.30,2013-02-09 14:16:00,
2013-02-09 09:21:00,29.8,18.0,30.20,NNE,15,9.1,18.1,60,0.00,,,0.00,WX3IN1Plus v1.30,2013-02-09 14:21:00,
2013-02-09 09:26:00,30.0,18.0,30.21,NNE,19,13.6,22.4,60,0.00,,,0.00,WX3IN1Plus v1.30,2013-02-09 14:26:00,
2013-02-09 09:31:00,30.0,18.0,30.21,NE,45,4.7,17.8,60,0.00,,,0.00,WX3IN1Plus v1.30,2013-02-09 14:31:00,
2013-02-09 09:36:00,30.2,18.2,30.21,NE,35,7.1,20.0,60,0.00,,,0.00,WX3IN1Plus v1.30,2013-02-09 14:36:00,
2013-02-09 09:41:00,30.4,18.7,30.20,NW,313,4.6,12.8,60,0.00,,,0.00,WX3IN1Plus v1.30,2013-02-09 14:41:00,
2013-02-09 09:46:00,30.8,18.9,30.21,NNW,338,10.1,12.0,60,0.00,,,0.00,WX3IN1Plus v1.30,2013-02-09 14:46:00,
2013-02-09 09:51:00,30.9,18.4,30.21,NW,323,10.6,18.8,59,0.00,,,0.00,WX3IN1Plus v1.30,2013-02-09 14:51:00,
2013-02-09 09:56:00,30.7,18.2,30.21,North,7,15.5,16.1,59,0.00,,,0.00,WX3IN1Plus v1.30,2013-02-09 14:56:00,
2013-02-09 10:01:00,30.7,18.2,30.21,NE,37,6.5,18.5,59,0.00,,,0.00,WX3IN1Plus v1.30,2013-02-09 15:01:00,
2013-02-09 10:06:00,30.9,18.9,30.21,North,358,5.4,17.1,60,0.00,,,0.00,WX3IN1Plus v1.30,2013-02-09 15:06:00,
2013-02-09 10:11:00,31.0,18.4,30.21,NNE,28,3.4,19.8,58,0.00,,,0.00,WX3IN1Plus v1.30,2013-02-09 15:11:00,
2013-02-09 10:16:00,31.2,18.2,30.21,ENE,60,9.5,20.4,57,0.00,,,0.00,WX3IN1Plus v1.30,2013-02-09 15:16:00,
2013-02-09 10:21:00,31.1,18.0,30.22,NNE,25,11.8,22.0,57,0.00,,,0.00,WX3IN1Plus v1.30,2013-02-09 15:21:00,
2013-02-09 10:26:00,31.2,18.2,30.22,North,358,8.4,17.8,57,0.00,,,0.00,WX3IN1Plus v1.30,2013-02-09 15:26:00,
2013-02-09 10:31:00,31.3,18.2,30.22,NNE,23,6.4,25.1,57,0.00,,,0.00,WX3IN1Plus v1.30,2013-02-09 15:31:00,
2013-02-09 10:36:00,31.4,17.8,30.22,NNW,345,12.5,17.7,56,0.00,,,0.00,WX3IN1Plus v1.30,2013-02-09 15:36:00,
2013-02-09 10:41:00,31.6,18.4,30.23,North,7,8.2,18.2,57,0.00,,,0.00,WX3IN1Plus v1.30,2013-02-09 15:41:00,
2013-02-09 10:46:00,31.7,18.2,30.23,NNE,25,4.2,19.7,56,0.00,,,0.00,WX3IN1Plus v1.30,2013-02-09 15:46:00,
2013-02-09 10:51:00,31.9,18.2,30.23,NNE,26,9.2,16.9,56,0.00,,,0.00,WX3IN1Plus v1.30,2013-02-09 15:51:00,
2013-02-09 10:56:00,31.8,18.2,30.24,North,357,9.0,18.3,56,0.00,,,0.00,WX3IN1Plus v1.30,2013-02-09 15:56:00,
2013-02-09 11:01:00,32.2,17.8,30.24,NE,36,11.3,23.6,55,0.00,,,0.00,WX3IN1Plus v1.30,2013-02-09 16:01:00,
2013-02-09 11:06:00,32.3,18.2,30.25,NE,43,8.3,20.2,56,0.00,,,0.00,WX3IN1Plus v1.30,2013-02-09 16:06:00,
2013-02-09 11:11:00,32.5,17.5,30.25,NNE,19,9.3,17.0,54,0.00,,,0.00,WX3IN1Plus v1.30,2013-02-09 16:11:00,
2013-02-09 11:16:00,32.6,17.8,30.26,NNE,16,5.7,15.4,54,0.00,,,0.00,WX3IN1Plus v1.30,2013-02-09 16:16:00,
2013-02-09 11:21:00,32.9,18.0,30.25,NNE,25,9.4,15.7,54,0.00,,,0.00,WX3IN1Plus v1.30,2013-02-09 16:21:00,
2013-02-09 11:26:00,33.0,18.4,30.26,NNE,30,8.6,17.2,55,0.00,,,0.00,WX3IN1Plus v1.30,2013-02-09 16:26:00,
2013-02-09 11:31:00,33.3,18.4,30.26,NNE,22,7.1,15.2,54,0.00,,,0.00,WX3IN1Plus v1.30,2013-02-09 16:31:00,
2013-02-09 11:36:00,33.7,18.7,30.26,WNW,296,7.0,21.5,54,0.00,,,0.00,WX3IN1Plus v1.30,2013-02-09 16:36:00,
2013-02-09 11:41:00,33.6,18.4,30.27,NW,322,11.0,19.0,54,0.00,,,0.00,WX3IN1Plus v1.30,2013-02-09 16:41:00,
2013-02-09 11:46:00,33.8,19.4,30.27,NNW,345,10.6,17.4,55,0.00,,,0.00,WX3IN1Plus v1.30,2013-02-09 16:46:00,
2013-02-09 11:51:00,33.9,18.9,30.27,North,352,6.2,16.0,54,0.00,,,0.00,WX3IN1Plus v1.30,2013-02-09 16:51:00,
2013-02-09 11:56:00,34.2,19.1,30.27,NNE,16,5.5,13.6,54,0.00,,,0.00,WX3IN1Plus v1.30,2013-02-09 16:56:00,
2013-02-09 12:01:00,34.4,18.7,30.27,NNW,329,8.2,15.9,52,0.00,,,0.00,WX3IN1Plus v1.30,2013-02-09 17:01:00,
2013-02-09 12:06:00,34.4,19.1,30.27,North,358,4.7,16.5,53,0.00,,,0.00,WX3IN1Plus v1.30,2013-02-09 17:06:00,
2013-02-09 12:11:00,34.2,18.9,30.27,NNE,15,11.0,14.9,53,0.00,,,0.00,WX3IN1Plus v1.30,2013-02-09 17:11:00,
2013-02-09 12:16:00,34.3,19.1,30.27,NW,320,7.5,14.2,54,0.00,,,0.00,WX3IN1Plus v1.30,2013-02-09 17:16:00,
2013-02-09 12:21:00,34.6,18.9,30.27,NNE,15,8.0,17.9,52,0.00,,,0.00,WX3IN1Plus v1.30,2013-02-09 17:21:00,
2013-02-09 12:26:00,34.8,19.4,30.27,North,358,3.2,12.3,53,0.00,,,0.00,WX3IN1Plus v1.30,2013-02-09 17:26:00,
2013-02-09 12:31:00,34.9,19.1,30.27,NNE,23,7.1,18.3,52,0.00,,,0.00,WX3IN1Plus v1.30,2013-02-09 17:31:00,
2013-02-09 12:36:00,35.2,19.8,30.27,NNE,25,4.9,13.9,53,0.00,,,0.00,WX3IN1Plus v1.30,2013-02-09 17:36:00,
2013-02-09 12:41:00,35.4,18.9,30.27,NNE,16,8.7,16.4,51,0.00,,,0.00,WX3IN1Plus v1.30,2013-02-09 17:41:00,
2013-02-09 12:46:00,35.6,19.8,30.27,North,7,6.1,15.4,52,0.00,,,0.00,WX3IN1Plus v1.30,2013-02-09 17:46:00,
2013-02-09 12:51:00,35.6,18.9,30.27,NNW,337,4.7,15.6,50,0.00,,,0.00,WX3IN1Plus v1.30,2013-02-09 17:51:00,
2013-02-09 12:56:00,35.5,19.1,30.27,North,358,4.9,15.1,51,0.00,,,0.00,WX3IN1Plus v1.30,2013-02-09 17:56:00,
2013-02-09 13:01:00,35.7,19.4,30.27,West,262,2.4,15.2,51,0.00,,,0.00,WX3IN1Plus v1.30,2013-02-09 18:01:00,
2013-02-09 13:06:00,35.9,19.1,30.27,NNE,25,7.7,18.3,50,0.00,,,0.00,WX3IN1Plus v1.30,2013-02-09 18:06:00,
2013-02-09 13:11:00,36.1,19.6,30.28,NNE,15,5.5,10.3,51,0.00,,,0.00,WX3IN1Plus v1.30,2013-02-09 18:11:00,
2013-02-09 13:16:00,36.1,19.6,30.28,North,358,6.8,17.5,51,0.00,,,0.00,WX3IN1Plus v1.30,2013-02-09 18:16:00,
2013-02-09 13:21:00,36.4,19.1,30.28,NNE,26,10.1,16.4,49,0.00,,,0.00,WX3IN1Plus v1.30,2013-02-09 18:21:00,
2013-02-09 13:26:00,36.4,19.1,30.28,NNW,347,6.9,20.5,49,0.00,,,0.00,WX3IN1Plus v1.30,2013-02-09 18:26:00,
2013-02-09 13:31:00,36.5,19.1,30.27,NNE,21,5.5,14.2,49,0.00,,,0.00,WX3IN1Plus v1.30,2013-02-09 18:31:00,
2013-02-09 13:36:00,36.7,19.8,30.27,NNW,337,3.4,12.1,50,0.00,,,0.00,WX3IN1Plus v1.30,2013-02-09 18:36:00,
2013-02-09 13:41:00,37.0,19.6,30.27,NNW,347,3.6,13.3,49,0.00,,,0.00,WX3IN1Plus v1.30,2013-02-09 18:41:00,
2013-02-09 13:46:00,37.2,19.8,30.28,North,358,5.8,16.7,49,0.00,,,0.00,WX3IN1Plus v1.30,2013-02-09 18:46:00,
2013-02-09 13:51:00,37.6,19.8,30.27,NE,39,12.6,12.6,48,0.00,,,0.00,WX3IN1Plus v1.30,2013-02-09 18:51:00,
2013-02-09 13:57:00,37.4,19.6,30.28,North,2,7.5,17.0,48,0.00,,,0.00,WX3IN1Plus v1.30,2013-02-09 18:57:00,
2013-02-09 14:02:00,37.6,19.8,30.27,North,5,5.7,12.0,48,0.00,,,0.00,WX3IN1Plus v1.30,2013-02-09 19:02:00,
2013-02-09 14:07:00,37.7,20.3,30.27,North,7,3.1,10.3,49,0.00,,,0.00,WX3IN1Plus v1.30,2013-02-09 19:07:00,
2013-02-09 14:12:00,37.7,19.1,30.28,NNW,329,9.3,15.8,47,0.00,,,0.00,WX3IN1Plus v1.30,2013-02-09 19:12:00,
2013-02-09 14:17:00,38.0,20.0,30.28,North,4,4.2,14.7,48,0.00,,,0.00,WX3IN1Plus v1.30,2013-02-09 19:17:00,
2013-02-09 14:22:00,38.0,19.4,30.28,NNW,348,6.3,15.9,47,0.00,,,0.00,WX3IN1Plus v1.30,2013-02-09 19:22:00,
2013-02-09 14:27:00,38.3,20.5,30.28,NW,315,5.8,12.5,48,0.00,,,0.00,WX3IN1Plus v1.30,2013-02-09 19:27:00,
2013-02-09 14:32:00,38.4,19.8,30.29,NW,312,5.2,10.3,47,0.00,,,0.00,WX3IN1Plus v1.30,2013-02-09 19:32:00,
2013-02-09 14:37:00,38.4,20.5,30.29,NNW,329,5.0,14.9,48,0.00,,,0.00,WX3IN1Plus v1.30,2013-02-09 19:37:00,
2013-02-09 14:42:00,38.1,19.4,30.29,NNW,345,6.0,14.9,47,0.00,,,0.00,WX3IN1Plus v1.30,2013-02-09 19:42:00,
2013-02-09 14:47:00,38.5,19.8,30.29,NNW,347,0.5,9.7,47,0.00,,,0.00,WX3IN1Plus v1.30,2013-02-09 19:47:00,
2013-02-09 14:52:00,38.7,19.1,30.30,NE,56,9.2,17.2,45,0.00,,,0.00,WX3IN1Plus v1.30,2013-02-09 19:52:00,
2013-02-09 14:57:00,38.6,19.4,30.30,North,2,6.8,10.0,46,0.00,,,0.00,WX3IN1Plus v1.30,2013-02-09 19:57:00,
2013-02-09 15:02:00,38.9,19.4,30.31,NNE,23,8.1,13.1,45,0.00,,,0.00,WX3IN1Plus v1.30,2013-02-09 20:02:00,
2013-02-09 15:07:00,38.8,19.1,30.31,NNE,30,9.1,14.7,45,0.00,,,0.00,WX3IN1Plus v1.30,2013-02-09 20:07:00,
2013-02-09 15:12:00,38.9,19.8,30.31,NNW,331,8.8,15.2,46,0.00,,,0.00,WX3IN1Plus v1.30,2013-02-09 20:12:00,
2013-02-09 15:17:00,39.1,19.8,30.31,NNW,329,8.1,12.1,46,0.00,,,0.00,WX3IN1Plus v1.30,2013-02-09 20:17:00,
2013-02-09 15:22:00,39.0,19.4,30.31,NNE,32,10.5,17.4,45,0.00,,,0.00,WX3IN1Plus v1.30,2013-02-09 20:22:00,
2013-02-09 15:27:00,38.9,19.4,30.31,North,11,9.2,16.2,45,0.00,,,0.00,WX3IN1Plus v1.30,2013-02-09 20:27:00,
2013-02-09 15:32:00,39.0,19.8,30.31,NNE,28,6.2,11.6,46,0.00,,,0.00,WX3IN1Plus v1.30,2013-02-09 20:32:00,
2013-02-09 15:37:00,39.0,19.4,30.31,North,350,3.1,11.2,45,0.00,,,0.00,WX3IN1Plus v1.30,2013-02-09 20:37:00,
2013-02-09 15:42:00,39.1,19.4,30.32,NE,49,8.5,11.9,45,0.00,,,0.00,WX3IN1Plus v1.30,2013-02-09 20:42:00,
2013-02-09 15:47:00,39.2,19.6,30.32,NW,316,5.5,11.4,45,0.00,,,0.00,WX3IN1Plus v1.30,2013-02-09 20:47:00,
2013-02-09 15:52:00,39.2,20.0,30.32,NE,54,1.2,12.3,46,0.00,,,0.00,WX3IN1Plus v1.30,2013-02-09 20:52:00,
2013-02-09 15:57:00,38.9,19.4,30.32,North,352,7.0,11.8,45,0.00,,,0.00,WX3IN1Plus v1.30,2013-02-09 20:57:00,
2013-02-09 16:02:00,38.8,20.0,30.32,North,2,4.1,9.9,47,0.00,,,0.00,WX3IN1Plus v1.30,2013-02-09 21:02:00,
2013-02-09 16:07:00,39.0,18.9,30.32,North,4,5.5,14.1,44,0.00,,,0.00,WX3IN1Plus v1.30,2013-02-09 21:07:00,
2013-02-09 16:12:00,38.9,19.4,30.33,NE,49,2.7,12.4,45,0.00,,,0.00,WX3IN1Plus v1.30,2013-02-09 21:12:00,
2013-02-09 16:17:00,38.8,19.1,30.33,NNW,345,3.2,12.8,45,0.00,,,0.00,WX3IN1Plus v1.30,2013-02-09 21:17:00,
2013-02-09 16:22:00,38.6,18.9,30.33,North,358,6.4,13.4,45,0.00,,,0.00,WX3IN1Plus v1.30,2013-02-09 21:22:00,
2013-02-09 16:27:00,38.7,19.1,30.33,NW,310,4.5,11.8,45,0.00,,,0.00,WX3IN1Plus v1.30,2013-02-09 21:27:00,
2013-02-09 16:32:00,38.5,18.9,30.33,North,8,5.0,12.8,45,0.00,,,0.00,WX3IN1Plus v1.30,2013-02-09 21:32:00,
2013-02-09 16:37:00,38.2,19.1,30.33,NNW,343,5.5,12.9,46,0.00,,,0.00,WX3IN1Plus v1.30,2013-02-09 21:37:00,
2013-02-09 16:42:00,38.0,18.9,30.34,NNE,28,6.4,9.8,46,0.00,,,0.00,WX3IN1Plus v1.30,2013-02-09 21:42:00,
2013-02-09 16:47:00,37.9,18.7,30.34,East,87,2.9,9.8,46,0.00,,,0.00,WX3IN1Plus v1.30,2013-02-09 21:47:00,
2013-02-09 16:52:00,37.7,18.7,30.34,NNE,25,2.2,8.5,46,0.00,,,0.00,WX3IN1Plus v1.30,2013-02-09 21:52:00,
2013-02-09 16:57:00,37.6,18.7,30.34,NNE,22,5.5,8.5,46,0.00,,,0.00,WX3IN1Plus v1.30,2013-02-09 21:57:00,
2013-02-09 17:02:00,37.6,18.7,30.34,NW,324,4.6,8.1,46,0.00,,,0.00,WX3IN1Plus v1.30,2013-02-09 22:02:00,
2013-02-09 17:07:00,37.5,18.4,30.34,North,7,5.7,8.5,46,0.00,,,0.00,WX3IN1Plus v1.30,2013-02-09 22:07:00,
2013-02-09 17:12:00,37.5,18.4,30.34,East,87,3.1,7.7,46,0.00,,,0.00,WX3IN1Plus v1.30,2013-02-09 22:12:00,
2013-02-09 17:17:00,37.4,18.4,30.34,ENE,57,5.3,8.3,46,0.00,,,0.00,WX3IN1Plus v1.30,2013-02-09 22:17:00,
2013-02-09 17:22:00,37.2,18.2,30.35,NNW,334,3.2,9.0,46,0.00,,,0.00,WX3IN1Plus v1.30,2013-02-09 22:22:00,
2013-02-09 17:27:00,37.1,18.2,30.35,NNW,338,1.4,6.3,46,0.00,,,0.00,WX3IN1Plus v1.30,2013-02-09 22:27:00,
2013-02-09 17:32:00,36.9,18.0,30.35,NNE,28,4.8,9.8,46,0.00,,,0.00,WX3IN1Plus v1.30,2013-02-09 22:32:00,
2013-02-09 17:37:00,36.7,17.8,30.35,NNE,19,3.1,6.5,46,0.00,,,0.00,WX3IN1Plus v1.30,2013-02-09 22:37:00,
2013-02-09 17:42:00,36.6,17.5,30.35,ENE,71,3.4,8.8,46,0.00,,,0.00,WX3IN1Plus v1.30,2013-02-09 22:42:00,
2013-02-09 17:47:00,36.4,18.0,30.35,NNE,30,1.0,7.7,47,0.00,,,0.00,WX3IN1Plus v1.30,2013-02-09 22:47:00,
2013-02-09 17:52:00,36.3,17.8,30.35,NNW,347,3.2,9.6,47,0.00,,,0.00,WX3IN1Plus v1.30,2013-02-09 22:52:00,
2013-02-09 17:57:00,36.1,17.5,30.34,NNE,16,2.8,7.8,47,0.00,,,0.00,WX3IN1Plus v1.30,2013-02-09 22:57:00,
2013-02-09 18:02:00,35.9,18.2,30.34,North,8,0.0,3.4,48,0.00,,,0.00,WX3IN1Plus v1.30,2013-02-09 23:02:00,
2013-02-09 18:07:00,35.7,18.0,30.34,NNW,340,1.9,6.7,48,0.00,,,0.00,WX3IN1Plus v1.30,2013-02-09 23:07:00,
2013-02-09 18:12:00,35.5,18.2,30.34,NE,52,0.0,3.1,49,0.00,,,0.00,WX3IN1Plus v1.30,2013-02-09 23:12:00,
2013-02-09 18:17:00,35.3,18.0,30.34,NNE,12,0.0,3.5,49,0.00,,,0.00,WX3IN1Plus v1.30,2013-02-09 23:17:00,
2013-02-09 18:22:00,35.1,18.0,30.35,North,358,0.3,6.9,49,0.00,,,0.00,WX3IN1Plus v1.30,2013-02-09 23:22:00,
2013-02-09 18:27:00,34.9,18.2,30.35,North,358,0.0,1.6,50,0.00,,,0.00,WX3IN1Plus v1.30,2013-02-09 23:27:00,
2013-02-09 18:32:00,34.7,18.4,30.35,North,358,0.0,0.0,51,0.00,,,0.00,WX3IN1Plus v1.30,2013-02-09 23:32:00,
2013-02-09 18:37:00,34.6,18.4,30.35,North,358,0.0,0.0,51,0.00,,,0.00,WX3IN1Plus v1.30,2013-02-09 23:37:00,
2013-02-09 18:42:00,34.3,18.4,30.35,West,264,0.0,3.7,52,0.00,,,0.00,WX3IN1Plus v1.30,2013-02-09 23:42:00,
2013-02-09 18:47:00,33.9,18.7,30.35,West,264,0.0,0.0,53,0.00,,,0.00,WX3IN1Plus v1.30,2013-02-09 23:47:00,
2013-02-09 18:52:00,34.0,18.7,30.35,West,264,0.0,0.0,53,0.00,,,0.00,WX3IN1Plus v1.30,2013-02-09 23:52:00,
2013-02-09 18:57:00,33.7,18.7,30.36,West,264,0.0,0.0,54,0.00,,,0.00,WX3IN1Plus v1.30,2013-02-09 23:57:00,
2013-02-09 19:02:00,33.8,18.9,30.36,West,264,0.0,0.0,54,0.00,,,0.00,WX3IN1Plus v1.30,2013-02-10 00:02:00,
2013-02-09 19:07:00,33.6,18.4,30.36,NNW,329,2.3,4.1,54,0.00,,,0.00,WX3IN1Plus v1.30,2013-02-10 00:07:00,
2013-02-09 19:12:00,33.2,18.2,30.37,NNW,334,0.0,3.9,54,0.00,,,0.00,WX3IN1Plus v1.30,2013-02-10 00:12:00,
2013-02-09 19:17:00,33.2,18.7,30.37,NNW,330,0.0,3.4,55,0.00,,,0.00,WX3IN1Plus v1.30,2013-02-10 00:17:00,
2013-02-09 19:22:00,33.2,18.7,30.37,NW,324,0.0,3.4,55,0.00,,,0.00,WX3IN1Plus v1.30,2013-02-10 00:22:00,
2013-02-09 19:27:00,33.2,18.7,30.37,NW,324,0.0,0.0,55,0.00,,,0.00,WX3IN1Plus v1.30,2013-02-10 00:27:00,
2013-02-09 19:32:00,33.1,18.7,30.38,NNE,19,1.6,4.4,55,0.00,,,0.00,WX3IN1Plus v1.30,2013-02-10 00:32:00,
2013-02-09 19:37:00,32.9,18.4,30.38,NNW,331,0.0,1.8,55,0.00,,,0.00,WX3IN1Plus v1.30,2013-02-10 00:37:00,
2013-02-09 19:42:00,32.9,18.4,30.38,North,4,1.8,3.2,55,0.00,,,0.00,WX3IN1Plus v1.30,2013-02-10 00:42:00,
2013-02-09 19:47:00,32.9,18.4,30.38,NNW,333,0.0,2.2,55,0.00,,,0.00,WX3IN1Plus v1.30,2013-02-10 00:47:00,
2013-02-09 19:52:00,32.8,18.2,30.39,North,2,0.0,2.6,55,0.00,,,0.00,WX3IN1Plus v1.30,2013-02-10 00:52:00,
2013-02-09 19:57:00,32.6,18.2,30.39,NNW,347,0.0,3.3,55,0.00,,,0.00,WX3IN1Plus v1.30,2013-02-10 00:57:00,
2013-02-09 20:02:00,32.6,18.2,30.39,NNW,348,0.0,3.2,55,0.00,,,0.00,WX3IN1Plus v1.30,2013-02-10 01:02:00,
2013-02-09 20:07:00,32.4,18.0,30.39,NNE,15,0.0,2.4,55,0.00,,,0.00,WX3IN1Plus v1.30,2013-02-10 01:07:00,
2013-02-09 20:12:00,32.4,18.4,30.39,NE,40,1.8,3.9,56,0.00,,,0.00,WX3IN1Plus v1.30,2013-02-10 01:12:00,
2013-02-09 20:17:00,32.3,18.2,30.39,North,8,0.0,2.6,56,0.00,,,0.00,WX3IN1Plus v1.30,2013-02-10 01:17:00,
2013-02-09 20:22:00,31.9,18.2,30.39,NNW,345,0.0,3.9,56,0.00,,,0.00,WX3IN1Plus v1.30,2013-02-10 01:22:00,
2013-02-09 20:27:00,31.9,18.2,30.39,NNW,345,0.0,0.0,56,0.00,,,0.00,WX3IN1Plus v1.30,2013-02-10 01:27:00,
2013-02-09 20:32:00,31.9,18.2,30.38,NNW,345,0.0,0.0,56,0.00,,,0.00,WX3IN1Plus v1.30,2013-02-10 01:32:00,
2013-02-09 20:37:00,31.9,18.2,30.38,NNW,345,0.0,0.0,56,0.00,,,0.00,WX3IN1Plus v1.30,2013-02-10 01:37:00,
2013-02-09 20:42:00,31.8,18.2,30.38,NNW,327,0.0,1.4,56,0.00,,,0.00,WX3IN1Plus v1.30,2013-02-10 01:42:00,
2013-02-09 20:47:00,31.6,18.0,30.38,NNW,327,0.0,0.0,56,0.00,,,0.00,WX3IN1Plus v1.30,2013-02-10 01:47:00,
2013-02-09 20:52:00,31.6,18.0,30.38,NNW,327,0.0,0.0,56,0.00,,,0.00,WX3IN1Plus v1.30,2013-02-10 01:52:00,
2013-02-09 20:57:00,31.5,18.4,30.37,NNW,327,0.0,0.0,57,0.00,,,0.00,WX3IN1Plus v1.30,2013-02-10 01:57:00,
2013-02-09 21:02:00,31.5,18.4,30.38,NNW,327,0.0,0.0,57,0.00,,,0.00,WX3IN1Plus v1.30,2013-02-10 02:02:00,
2013-02-09 21:07:00,31.1,18.0,30.38,NNW,327,0.0,0.0,57,0.00,,,0.00,WX3IN1Plus v1.30,2013-02-10 02:07:00,
2013-02-09 21:12:00,30.9,17.8,30.38,NNW,327,0.0,0.0,57,0.00,,,0.00,WX3IN1Plus v1.30,2013-02-10 02:12:00,
2013-02-09 21:17:00,30.8,18.2,30.38,NNW,327,0.0,0.0,58,0.00,,,0.00,WX3IN1Plus v1.30,2013-02-10 02:17:00,
2013-02-09 21:22:00,30.6,18.0,30.38,NNW,327,0.0,0.0,58,0.00,,,0.00,WX3IN1Plus v1.30,2013-02-10 02:22:00,
2013-02-09 21:27:00,30.2,17.5,30.38,NNW,327,0.0,0.0,58,0.00,,,0.00,WX3IN1Plus v1.30,2013-02-10 02:27:00,
2013-02-09 21:32:00,29.9,17.5,30.38,NNW,327,0.0,0.0,59,0.00,,,0.00,WX3IN1Plus v1.30,2013-02-10 02:32:00,
2013-02-09 21:37:00,29.7,17.5,30.38,NNW,327,0.0,0.0,59,0.00,,,0.00,WX3IN1Plus v1.30,2013-02-10 02:37:00,
2013-02-09 21:42:00,29.6,17.3,30.39,NNW,327,0.0,0.0,59,0.00,,,0.00,WX3IN1Plus v1.30,2013-02-10 02:42:00,
2013-02-09 21:47:00,29.5,17.8,30.39,NNW,327,0.0,0.0,60,0.00,,,0.00,WX3IN1Plus v1.30,2013-02-10 02:47:00,
2013-02-09 21:52:00,29.3,17.5,30.40,NNW,327,0.0,0.0,60,0.00,,,0.00,WX3IN1Plus v1.30,2013-02-10 02:52:00,
2013-02-09 21:57:00,29.2,17.5,30.40,NNW,327,0.0,0.0,60,0.00,,,0.00,WX3IN1Plus v1.30,2013-02-10 02:57:00,
2013-02-09 22:02:00,29.1,17.8,30.40,NNW,327,0.0,0.0,61,0.00,,,0.00,WX3IN1Plus v1.30,2013-02-10 03:02:00,
2013-02-09 22:07:00,28.9,17.8,30.40,NNW,327,0.0,0.0,62,0.00,,,0.00,WX3IN1Plus v1.30,2013-02-10 03:07:00,
2013-02-09 22:12:00,28.5,17.3,30.41,NNW,327,0.0,0.0,61,0.00,,,0.00,WX3IN1Plus v1.30,2013-02-10 03:12:00,
2013-02-09 22:17:00,28.6,17.5,30.41,NNW,327,0.0,0.0,62,0.00,,,0.00,WX3IN1Plus v1.30,2013-02-10 03:17:00,
2013-02-09 22:22:00,28.3,17.3,30.41,NNW,327,0.0,0.0,62,0.00,,,0.00,WX3IN1Plus v1.30,2013-02-10 03:22:00,
2013-02-09 22:27:00,28.3,17.3,30.41,NNW,327,0.0,0.0,62,0.00,,,0.00,WX3IN1Plus v1.30,2013-02-10 03:27:00,
2013-02-09 22:32:00,28.2,17.5,30.41,NNW,327,0.0,0.0,63,0.00,,,0.00,WX3IN1Plus v1.30,2013-02-10 03:32:00,
2013-02-09 22:37:00,28.2,17.5,30.41,NNW,327,0.0,0.0,63,0.00,,,0.00,WX3IN1Plus v1.30,2013-02-10 03:37:00,
2013-02-09 22:42:00,27.9,17.3,30.41,NNW,327,0.0,0.0,63,0.00,,,0.00,WX3IN1Plus v1.30,2013-02-10 03:42:00,
2013-02-09 22:47:00,27.6,17.1,30.42,NNW,327,0.0,0.0,63,0.00,,,0.00,WX3IN1Plus v1.30,2013-02-10 03:47:00,
2013-02-09 22:52:00,27.5,17.1,30.42,NNW,327,0.0,0.0,64,0.00,,,0.00,WX3IN1Plus v1.30,2013-02-10 03:52:00,
2013-02-09 22:57:00,27.4,17.1,30.42,NNW,327,0.0,0.0,64,0.00,,,0.00,WX3IN1Plus v1.30,2013-02-10 03:57:00,
2013-02-09 23:02:00,27.2,16.7,30.42,NNW,327,0.0,0.0,64,0.00,,,0.00,WX3IN1Plus v1.30,2013-02-10 04:02:00,
2013-02-09 23:07:00,27.3,16.7,30.42,NNW,327,0.0,0.0,64,0.00,,,0.00,WX3IN1Plus v1.30,2013-02-10 04:07:00,
2013-02-09 23:12:00,27.2,16.7,30.42,NNW,327,0.0,0.0,64,0.00,,,0.00,WX3IN1Plus v1.30,2013-02-10 04:12:00,
2013-02-09 23:17:00,27.4,17.1,30.42,NNW,327,0.0,0.0,64,0.00,,,0.00,WX3IN1Plus v1.30,2013-02-10 04:17:00,
2013-02-09 23:22:00,27.2,16.7,30.42,NNW,327,0.0,0.0,64,0.00,,,0.00,WX3IN1Plus v1.30,2013-02-10 04:22:00,
2013-02-09 23:27:00,27.1,16.7,30.41,NNW,327,0.0,0.0,64,0.00,,,0.00,WX3IN1Plus v1.30,2013-02-10 04:27:00,
2013-02-09 23:32:00,27.2,16.7,30.42,NNW,327,0.0,0.0,64,0.00,,,0.00,WX3IN1Plus v1.30,2013-02-10 04:32:00,
2013-02-09 23:37:00,27.1,16.7,30.42,NNW,327,0.0,0.0,64,0.00,,,0.00,WX3IN1Plus v1.30,2013-02-10 04:37:00,
2013-02-09 23:42:00,26.8,17.1,30.42,NNW,327,0.0,0.0,65,0.00,,,0.00,WX3IN1Plus v1.30,2013-02-10 04:42:00,
2013-02-09 23:48:00,26.7,17.1,30.43,NNW,327,0.0,0.0,66,0.00,,,0.00,WX3IN1Plus v1.30,2013-02-10 04:48:00,
2013-02-09 23:53:00,26.4,16.7,30.43,NNW,327,0.0,0.0,66,0.00,,,0.00,WX3IN1Plus v1.30,2013-02-10 04:53:00,
2013-02-09 23:58:00,26.4,17.3,30.43,NNW,327,0.0,0.0,67,0.00,,,0.00,WX3IN1Plus v1.30,2013-02-10 04:58:00,